Time;durP1;ratioP1;P1;durP2;ratioP2;P2;SDS_P1;SDS_P2;PMS_P1;PMS_P2;Temp;Humidity;BMP_temperature;BMP_pressure;BME280_temperature;BME280_humidity;BME280_pressure;Samples;Min_cycle;Max_cycle;Signal;HPM_P1;HPM_P2
2020/12/17 03:46:07;;;;;;;17.02;9.85;;;4.90;99.90;;;;;;5993932;23;89414;31
2020/12/17 03:48:33;;;;;;;14.05;8.10;;;4.90;99.90;;;;;;4907879;28;87185;-80
2020/12/17 03:50:58;;;;;;;16.20;9.70;;;4.90;99.90;;;;;;4905614;28;88175;-82
2020/12/17 03:53:24;;;;;;;17.48;10.10;;;5.00;99.90;;;;;;4908854;28;87001;-81
2020/12/17 03:55:50;;;;;;;17.13;10.55;;;5.00;99.90;;;;;;4906683;28;87281;-80
2020/12/17 03:58:15;;;;;;;20.42;11.30;;;5.10;99.90;;;;;;4910643;28;86586;-81
2020/12/17 04:00:41;;;;;;;18.13;11.15;;;5.10;99.90;;;;;;4911481;28;87016;-81
2020/12/17 04:03:07;;;;;;;20.10;11.32;;;5.10;99.90;;;;;;4911361;28;87505;-80
2020/12/17 04:05:33;;;;;;;17.30;10.55;;;5.10;99.90;;;;;;4905410;28;88030;-80
2020/12/17 04:07:58;;;;;;;18.60;11.82;;;5.10;99.90;;;;;;4909313;28;87191;-80
2020/12/17 04:10:24;;;;;;;20.85;11.00;;;5.10;99.90;;;;;;4910204;28;87069;-80
2020/12/17 04:12:50;;;;;;;21.15;12.27;;;5.00;99.90;;;;;;4908864;28;86613;-82
2020/12/17 04:15:15;;;;;;;18.80;10.75;;;5.00;99.90;;;;;;4899394;28;88636;-81
2020/12/17 04:17:41;;;;;;;19.77;11.43;;;5.00;99.90;;;;;;4907348;28;88359;-82
2020/12/17 04:20:07;;;;;;;19.42;11.70;;;5.10;99.90;;;;;;4907467;28;86937;-81
2020/12/17 04:22:32;;;;;;;23.00;12.35;;;5.30;99.90;;;;;;4909399;28;87032;-81
2020/12/17 04:24:58;;;;;;;20.65;11.43;;;5.30;99.90;;;;;;4906970;28;87092;-81
2020/12/17 04:27:24;;;;;;;19.33;10.90;;;5.40;99.90;;;;;;4909165;28;87360;-80
2020/12/17 04:29:49;;;;;;;21.75;12.30;;;5.40;99.90;;;;;;4911490;28;86241;-80
2020/12/17 04:32:15;;;;;;;20.90;10.82;;;5.40;99.90;;;;;;4908394;28;86708;-81
2020/12/17 04:34:41;;;;;;;18.60;11.90;;;5.40;99.90;;;;;;4909890;28;86959;-81
2020/12/17 04:37:07;;;;;;;22.80;11.77;;;5.50;99.90;;;;;;4909809;28;88252;-78
2020/12/17 04:39:32;;;;;;;19.63;11.05;;;5.40;99.90;;;;;;4909643;28;87810;-82
2020/12/17 04:41:59;;;;;;;22.60;11.80;;;5.40;99.90;;;;;;4908634;28;86855;-80
2020/12/17 04:44:27;;;;;;;22.85;11.98;;;5.40;99.90;;;;;;4909390;28;86835;-79
2020/12/17 04:47:04;;;;;;;21.48;11.95;;;5.40;99.90;;;;;;4909398;28;88310;-80
2020/12/17 04:49:40;;;;;;;21.30;11.68;;;5.50;99.90;;;;;;4889608;28;86904;-79
2020/12/17 04:52:07;;;;;;;20.85;12.27;;;5.50;99.90;;;;;;4887549;28;87262;-78
2020/12/17 04:54:33;;;;;;;20.00;11.45;;;5.30;99.90;;;;;;4884609;28;87014;-80
2020/12/17 04:57:13;;;;;;;21.90;12.38;;;5.10;99.90;;;;;;4880356;28;88383;-81
2020/12/17 04:59:49;;;;;;;23.73;13.15;;;5.20;99.90;;;;;;4893173;28;86964;-81
2020/12/17 05:02:17;;;;;;;20.38;11.80;;;5.20;99.90;;;;;;4882243;28;87139;-80
2020/12/17 05:04:44;;;;;;;18.50;10.77;;;5.30;99.90;;;;;;4882299;28;88084;-80
2020/12/17 05:07:15;;;;;;;20.20;10.50;;;5.30;99.90;;;;;;4892967;28;88088;-81
2020/12/17 05:09:44;;;;;;;19.30;10.82;;;5.20;99.90;;;;;;4891648;28;86931;-81
2020/12/17 05:12:10;;;;;;;17.70;11.15;;;5.30;99.90;;;;;;4888424;28;87212;-78
2020/12/17 05:14:37;;;;;;;18.10;11.27;;;5.20;99.90;;;;;;4888174;28;88177;-81
2020/12/17 05:17:03;;;;;;;19.77;12.05;;;5.20;99.90;;;;;;4884260;28;86897;-80
2020/12/17 05:19:29;;;;;;;19.63;10.40;;;5.10;99.90;;;;;;4891238;28;86930;-81
2020/12/17 05:21:57;;;;;;;25.08;13.00;;;4.90;99.90;;;;;;4889215;28;85807;-79
2020/12/17 05:24:24;;;;;;;25.60;12.48;;;4.90;99.90;;;;;;4889822;28;87007;-80
2020/12/17 05:26:51;;;;;;;21.23;12.60;;;4.80;99.90;;;;;;4884880;28;86993;-79
2020/12/17 05:29:17;;;;;;;21.83;12.52;;;4.80;99.90;;;;;;4872927;28;87872;-81
2020/12/17 05:31:44;;;;;;;19.45;12.00;;;4.80;99.90;;;;;;4889137;28;86608;-83
2020/12/17 05:34:11;;;;;;;20.38;11.07;;;4.70;99.90;;;;;;4884754;28;87672;-81
2020/12/17 05:36:39;;;;;;;23.13;12.52;;;4.70;99.90;;;;;;4883911;28;87754;-81
2020/12/17 05:39:12;;;;;;;25.85;13.23;;;4.60;99.90;;;;;;4889695;28;87314;-80
2020/12/17 05:41:40;;;;;;;20.63;12.23;;;4.60;99.90;;;;;;4881339;28;86977;-81
2020/12/17 05:44:17;;;;;;;20.67;11.65;;;4.60;99.90;;;;;;4894585;28;87107;-82
2020/12/17 05:46:45;;;;;;;22.42;13.07;;;4.60;99.90;;;;;;4876051;28;86292;-80
2020/12/17 05:49:20;;;;;;;18.63;10.32;;;4.60;99.90;;;;;;4891039;28;86904;-79
2020/12/17 05:51:46;;;;;;;21.65;9.75;;;4.60;99.90;;;;;;4897743;28;86985;-80
2020/12/17 05:54:21;;;;;;;23.88;12.77;;;4.50;99.90;;;;;;4907134;28;88201;-82
2020/12/17 05:56:48;;;;;;;21.90;11.57;;;4.30;99.90;;;;;;4896712;28;87407;-82
2020/12/17 05:59:22;;;;;;;22.38;11.40;;;4.20;99.90;;;;;;4900567;28;86876;-80
2020/12/17 06:01:48;;;;;;;23.98;12.45;;;4.20;99.90;;;;;;4907983;28;86135;-80
2020/12/17 06:04:15;;;;;;;21.50;11.60;;;4.20;99.90;;;;;;4906623;28;88200;-80
2020/12/17 06:06:46;;;;;;;16.63;10.48;;;4.10;99.90;;;;;;4902666;28;87185;-80
2020/12/17 06:09:27;;;;;;;21.38;11.55;;;3.90;99.90;;;;;;4907075;28;86929;-78
2020/12/17 06:11:53;;;;;;;;;;;3.90;99.90;;;;;;4907379;28;87149;-79
2020/12/17 06:14:21;;;;;;;22.88;10.48;;;3.90;99.90;;;;;;4905839;28;86965;-81
2020/12/17 06:16:53;;;;;;;18.55;9.27;;;3.90;99.90;;;;;;4907022;28;87010;-78
2020/12/17 06:19:22;;;;;;;22.00;10.95;;;3.70;99.90;;;;;;4907253;28;87962;-82
2020/12/17 06:21:48;;;;;;;22.17;12.00;;;3.80;99.90;;;;;;4901643;28;86949;-82
2020/12/17 06:24:18;;;;;;;21.40;11.65;;;3.80;99.90;;;;;;4900451;28;87704;-79
2020/12/17 06:26:51;;;;;;;16.42;9.30;;;3.50;99.90;;;;;;4908215;28;87360;-81
2020/12/17 06:29:22;;;;;;;18.08;11.10;;;3.50;99.90;;;;;;4906073;28;86681;-83
2020/12/17 06:31:52;;;;;;;;;;;3.50;99.90;;;;;;4910343;28;87070;-80
2020/12/17 06:34:18;;;;;;;15.23;7.80;;;3.30;99.90;;;;;;4905055;28;87312;-84
2020/12/17 06:36:47;;;;;;;18.50;10.40;;;3.20;99.90;;;;;;4910632;28;86381;-83
2020/12/17 06:39:14;;;;;;;21.13;10.93;;;3.30;99.90;;;;;;4890740;28;87112;-81
2020/12/17 06:41:40;;;;;;;21.70;11.52;;;3.10;99.90;;;;;;4898385;28;86751;-84
2020/12/17 06:44:31;;;;;;;16.88;8.73;;;3.10;99.90;;;;;;4902518;28;88161;-79
2020/12/17 06:47:02;;;;;;;16.83;9.73;;;3.00;99.90;;;;;;4889866;28;88051;-80
2020/12/17 06:49:30;;;;;;;17.70;10.73;;;3.00;99.90;;;;;;4907065;28;86845;-79
2020/12/17 06:52:07;;;;;;;19.00;11.13;;;2.90;99.90;;;;;;4907165;28;87060;-79
2020/12/17 06:54:37;;;;;;;19.27;10.43;;;2.90;99.90;;;;;;4901406;28;88196;-81
2020/12/17 06:57:19;;;;;;;16.55;9.07;;;2.70;99.90;;;;;;4890192;28;88419;-80
2020/12/17 07:00:04;;;;;;;19.17;9.18;;;2.70;99.90;;;;;;4906925;28;87059;-79
2020/12/17 07:02:40;;;;;;;18.67;8.50;;;2.70;99.90;;;;;;4907454;28;86273;-81
2020/12/17 07:05:06;;;;;;;19.80;10.07;;;2.60;99.90;;;;;;4900541;28;87132;-80
2020/12/17 07:07:43;;;;;;;16.90;9.35;;;2.70;99.90;;;;;;4900609;28;86845;-80
2020/12/17 07:10:24;;;;;;;22.08;11.65;;;2.60;99.90;;;;;;4906163;28;87927;-80
2020/12/17 07:12:50;;;;;;;22.00;11.35;;;2.70;99.90;;;;;;4902888;28;86981;-79
2020/12/17 07:15:42;;;;;;;20.38;10.40;;;2.70;99.90;;;;;;4905540;28;86975;-81
2020/12/17 07:18:25;;;;;;;12.45;7.15;;;2.50;99.90;;;;;;4894673;28;87021;-81
2020/12/17 07:21:06;;;;;;;19.50;10.57;;;2.60;99.90;;;;;;4897122;28;86947;-81
2020/12/17 07:23:34;;;;;;;19.77;10.88;;;2.70;99.90;;;;;;4899634;28;86738;-81
2020/12/17 07:26:13;;;;;;;17.27;11.05;;;2.70;99.90;;;;;;4904224;28;86503;-79
2020/12/17 07:28:39;;;;;;;15.90;10.45;;;2.70;99.90;;;;;;4899980;28;90693;-80
2020/12/17 07:31:08;;;;;;;19.00;10.85;;;2.80;99.90;;;;;;4907622;28;86733;-81
2020/12/17 07:33:37;;;;;;;16.75;9.90;;;2.80;99.90;;;;;;4900478;28;86639;-80
2020/12/17 07:36:03;;;;;;;24.05;12.52;;;2.90;99.90;;;;;;4907607;28;89805;-78
2020/12/17 07:38:29;;;;;;;19.08;10.93;;;2.90;99.90;;;;;;4909521;28;88374;-81
2020/12/17 07:40:55;;;;;;;19.52;10.55;;;3.00;99.90;;;;;;4906243;28;86953;-79
2020/12/17 07:43:24;;;;;;;21.02;11.48;;;3.00;99.90;;;;;;4906476;28;86938;-80
2020/12/17 07:45:57;;;;;;;17.15;10.60;;;3.00;99.90;;;;;;4903528;28;87244;-80
2020/12/17 07:48:41;;;;;;;19.90;11.07;;;3.00;99.90;;;;;;4901253;28;86995;-81
2020/12/17 07:51:15;;;;;;;19.08;9.95;;;3.20;99.90;;;;;;4907323;28;86827;-79
2020/12/17 07:53:42;;;;;;;16.23;9.95;;;3.00;99.90;;;;;;4915538;28;85631;-79
2020/12/17 07:56:08;;;;;;;16.83;10.77;;;3.00;99.90;;;;;;4908374;28;87063;-81
2020/12/17 07:58:38;;;;;;;15.88;9.93;;;3.00;99.90;;;;;;4909954;28;86959;-81
2020/12/17 08:01:05;;;;;;;15.50;9.00;;;3.10;99.90;;;;;;4899606;28;88031;-77
2020/12/17 08:03:50;;;;;;;15.88;9.18;;;3.00;99.90;;;;;;4910475;28;86843;-81
2020/12/17 08:06:19;;;;;;;14.52;9.18;;;2.90;99.90;;;;;;4902532;28;87232;-79
2020/12/17 08:08:51;;;;;;;15.15;8.68;;;2.90;99.90;;;;;;4909491;28;87329;-80
2020/12/17 08:11:17;;;;;;;19.08;9.75;;;3.00;99.90;;;;;;4899483;28;86669;-79
2020/12/17 08:13:43;;;;;;;14.75;10.35;;;3.20;99.90;;;;;;4910451;28;87045;-80
2020/12/17 08:16:08;;;;;;;14.45;10.20;;;3.50;99.90;;;;;;4911470;28;87401;-80
2020/12/17 08:18:36;;;;;;;15.32;9.43;;;3.80;99.90;;;;;;4916383;28;86970;-80
2020/12/17 08:21:12;;;;;;;16.42;9.95;;;3.80;99.90;;;;;;4921464;28;86850;-79
2020/12/17 08:23:44;;;;;;;19.83;10.90;;;3.90;99.90;;;;;;4921269;28;86578;-80
2020/12/17 08:26:13;;;;;;;17.02;11.70;;;4.10;99.90;;;;;;4895254;28;89721;-79
2020/12/17 08:28:41;;;;;;;16.30;10.63;;;4.10;99.90;;;;;;4909202;28;87268;-79
2020/12/17 08:31:19;;;;;;;16.55;10.02;;;4.20;99.90;;;;;;4908905;28;86791;-79
2020/12/17 08:33:46;;;;;;;19.77;11.07;;;4.50;99.90;;;;;;4908842;28;87035;-82
2020/12/17 08:36:22;;;;;;;18.83;10.15;;;4.20;99.90;;;;;;4909458;28;87134;-80
2020/12/17 08:39:10;;;;;;;15.55;9.52;;;4.30;99.90;;;;;;4916775;28;87436;-80
2020/12/17 08:41:45;;;;;;;17.88;9.90;;;4.60;99.90;;;;;;4909457;28;87015;-81
2020/12/17 08:44:12;;;;;;;12.30;9.25;;;4.80;99.90;;;;;;4910043;28;86222;-78
2020/12/17 08:46:45;;;;;;;14.93;9.93;;;4.60;99.90;;;;;;4909314;28;87638;-80
2020/12/17 08:49:12;;;;;;;15.88;9.80;;;4.60;99.90;;;;;;4910135;28;86753;-79
2020/12/17 08:51:43;;;;;;;12.60;9.13;;;5.00;99.90;;;;;;4904853;28;87759;-80
2020/12/17 08:54:09;;;;;;;14.80;10.13;;;4.80;99.90;;;;;;4909350;28;86848;-77
2020/12/17 08:56:35;;;;;;;15.18;9.23;;;4.90;99.90;;;;;;4907975;28;87197;-81
2020/12/17 08:59:01;;;;;;;15.90;10.13;;;4.60;99.90;;;;;;4893092;28;86589;-79
2020/12/17 09:01:35;;;;;;;15.32;9.43;;;4.70;99.90;;;;;;4895330;28;86974;-78
2020/12/17 09:04:08;;;;;;;14.40;9.25;;;4.80;99.90;;;;;;4908361;28;86814;-81
2020/12/17 09:06:37;;;;;;;11.98;8.88;;;4.90;99.90;;;;;;4909912;28;87153;-82
2020/12/17 09:09:16;;;;;;;11.68;8.45;;;5.10;99.90;;;;;;4912882;28;86259;-80
2020/12/17 09:11:47;;;;;;;15.23;9.60;;;5.40;99.90;;;;;;4900269;28;87418;-81
2020/12/17 09:14:19;;;;;;;11.90;8.65;;;5.30;99.90;;;;;;4911425;28;86705;-80
2020/12/17 09:16:47;;;;;;;14.18;9.20;;;5.40;99.90;;;;;;4909983;28;88266;-78
2020/12/17 09:19:12;;;;;;;13.02;7.70;;;5.50;99.90;;;;;;4896690;28;87869;-79
2020/12/17 09:21:53;;;;;;;11.57;7.72;;;5.60;99.90;;;;;;4906018;28;86999;-81
2020/12/17 09:24:29;;;;;;;16.75;9.88;;;5.60;99.90;;;;;;4912277;28;86858;-80
2020/12/17 09:26:56;;;;;;;13.93;9.48;;;5.80;99.90;;;;;;4911775;28;87039;-80
2020/12/17 09:29:22;;;;;;;17.00;9.50;;;5.90;99.90;;;;;;4905907;28;87178;-81
2020/12/17 09:31:47;;;;;;;14.90;9.68;;;6.00;99.90;;;;;;4897609;28;86879;-82
2020/12/17 09:34:23;;;;;;;17.52;10.35;;;6.20;99.90;;;;;;4910010;28;86287;-79
2020/12/17 09:36:57;;;;;;;18.83;10.52;;;6.30;99.90;;;;;;4909037;28;86907;-81
2020/12/17 09:39:24;;;;;;;15.30;9.90;;;6.40;99.90;;;;;;4909058;28;87152;-81
2020/12/17 09:41:55;;;;;;;17.70;11.57;;;6.40;99.90;;;;;;4908595;28;87842;-81
2020/12/17 09:44:33;;;;;;;15.75;8.95;;;6.60;99.90;;;;;;4899722;28;86945;-81
2020/12/17 09:47:03;;;;;;;16.75;10.18;;;6.70;99.90;;;;;;4908028;28;86946;-81
2020/12/17 09:49:39;;;;;;;12.02;8.77;;;6.70;99.90;;;;;;4895545;28;87044;-80
2020/12/17 09:52:12;;;;;;;15.60;10.20;;;6.90;99.90;;;;;;4909080;28;87056;-79
2020/12/17 09:54:43;;;;;;;13.98;9.25;;;7.00;99.90;;;;;;4905604;28;87142;-80
2020/12/17 09:57:13;;;;;;;13.63;8.10;;;7.20;98.20;;;;;;4909030;28;86805;-81
2020/12/17 09:59:41;;;;;;;15.00;9.52;;;7.40;98.00;;;;;;4910052;28;86243;-81
2020/12/17 10:02:09;;;;;;;12.25;8.52;;;7.70;97.80;;;;;;4909261;28;87069;-80
2020/12/17 10:04:35;;;;;;;16.15;10.80;;;8.40;93.50;;;;;;4895573;28;87110;-82
2020/12/17 10:07:01;;;;;;;14.32;10.52;;;8.20;93.60;;;;;;4896260;28;88345;-82
2020/12/17 10:09:27;;;;;;;13.07;9.40;;;8.50;93.00;;;;;;4902230;28;87960;-81
2020/12/17 10:11:54;;;;;;;13.00;8.30;;;8.90;91.80;;;;;;4902966;28;86611;-81
2020/12/17 10:14:20;;;;;;;15.02;9.60;;;9.30;91.70;;;;;;4905249;28;87229;-80
2020/12/17 10:16:46;;;;;;;16.55;11.18;;;9.80;89.90;;;;;;4908918;28;88236;-81
2020/12/17 10:19:12;;;;;;;16.13;10.18;;;10.10;85.70;;;;;;4904488;28;86961;-82
2020/12/17 10:21:38;;;;;;;16.67;11.38;;;10.00;83.00;;;;;;4907421;28;87065;-81
2020/12/17 10:24:08;;;;;;;17.38;10.05;;;9.90;83.40;;;;;;4908910;28;86319;-83
2020/12/17 10:26:34;;;;;;;18.92;10.90;;;10.20;81.90;;;;;;4908122;28;87150;-83
2020/12/17 10:29:00;;;;;;;15.98;10.00;;;10.70;78.10;;;;;;4909603;28;86887;-83
2020/12/17 10:31:29;;;;;;;13.63;10.00;;;10.90;76.70;;;;;;4909369;28;87972;-81
2020/12/17 10:33:55;;;;;;;13.70;10.45;;;11.20;76.50;;;;;;4902920;28;86981;-83
2020/12/17 10:36:23;;;;;;;12.68;9.40;;;10.90;73.10;;;;;;4910727;28;86967;-83
2020/12/17 10:38:49;;;;;;;13.27;9.93;;;10.40;74.60;;;;;;4911717;28;86551;-84
2020/12/17 10:41:18;;;;;;;12.35;9.50;;;9.60;77.50;;;;;;4905236;28;86848;-83
2020/12/17 10:43:44;;;;;;;14.80;9.27;;;9.10;80.30;;;;;;4898508;28;86496;-82
2020/12/17 10:46:11;;;;;;;14.05;9.60;;;8.80;80.80;;;;;;4909252;28;87763;-82
2020/12/17 10:48:39;;;;;;;13.55;9.45;;;8.80;81.30;;;;;;4915486;28;86723;-82
2020/12/17 10:51:04;;;;;;;15.05;9.55;;;9.20;81.00;;;;;;4895214;28;86798;-81
2020/12/17 10:53:30;;;;;;;15.70;10.07;;;9.60;78.70;;;;;;4898802;28;86903;-81
2020/12/17 10:55:56;;;;;;;14.68;9.93;;;10.10;78.20;;;;;;4897824;28;88080;-82
2020/12/17 10:58:21;;;;;;;14.00;10.10;;;10.30;76.00;;;;;;4911682;28;88391;-79
2020/12/17 11:00:47;;;;;;;15.77;10.15;;;10.40;75.40;;;;;;4888404;28;86730;-82
2020/12/17 11:03:13;;;;;;;18.65;10.48;;;10.40;75.30;;;;;;4895236;28;86950;-82
2020/12/17 11:05:38;;;;;;;17.08;10.25;;;10.40;75.10;;;;;;4896756;28;87199;-82
2020/12/17 11:08:04;;;;;;;16.20;9.60;;;10.50;75.30;;;;;;4899501;28;87012;-83
2020/12/17 11:10:30;;;;;;;17.38;10.35;;;10.60;75.40;;;;;;4895478;28;87199;-82
2020/12/17 11:12:56;;;;;;;16.35;10.30;;;10.60;74.50;;;;;;4895862;28;86134;-82
2020/12/17 11:15:21;;;;;;;15.93;10.02;;;10.70;73.00;;;;;;4889471;28;87578;-82
2020/12/17 11:17:47;;;;;;;15.60;10.55;;;10.50;72.30;;;;;;4878417;28;86950;-83
2020/12/17 11:20:13;;;;;;;17.05;10.75;;;10.20;74.00;;;;;;4892343;28;87949;-83
2020/12/17 11:22:39;;;;;;;15.07;10.13;;;10.40;74.90;;;;;;4895362;28;87236;-81
2020/12/17 11:25:05;;;;;;;15.02;9.35;;;10.90;73.40;;;;;;4894527;28;86917;-83
2020/12/17 11:27:31;;;;;;;14.82;9.77;;;11.50;72.80;;;;;;4895072;28;86878;-83
2020/12/17 11:29:57;;;;;;;15.93;10.85;;;12.10;70.10;;;;;;4895259;28;86769;-83
2020/12/17 11:32:23;;;;;;;14.82;10.70;;;12.50;67.70;;;;;;4896313;28;86803;-83
2020/12/17 11:34:50;;;;;;;18.38;11.25;;;12.80;67.50;;;;;;4889639;28;87223;-82
2020/12/17 11:37:16;;;;;;;18.88;11.77;;;13.20;65.60;;;;;;4897713;28;87705;-82
2020/12/17 11:39:41;;;;;;;19.17;10.85;;;13.40;65.50;;;;;;4890778;28;87376;-82
2020/12/17 11:42:07;;;;;;;14.38;10.63;;;13.80;64.80;;;;;;4894677;28;87540;-83
2020/12/17 11:44:33;;;;;;;15.18;10.50;;;14.00;64.30;;;;;;4876731;28;90326;-83
2020/12/17 11:46:59;;;;;;;16.23;10.80;;;14.40;61.70;;;;;;4906930;28;87901;-83
2020/12/17 11:49:25;;;;;;;14.05;10.43;;;14.30;60.70;;;;;;4910225;28;86912;-83
2020/12/17 11:51:54;;;;;;;14.57;10.27;;;13.90;60.40;;;;;;4911209;28;87024;-82
2020/12/17 11:54:20;;;;;;;13.27;10.35;;;13.80;60.80;;;;;;4906679;28;87251;-83
2020/12/17 11:56:47;;;;;;;14.27;10.32;;;14.10;61.00;;;;;;4905613;28;86887;-84
2020/12/17 11:59:12;;;;;;;12.15;9.15;;;14.90;61.30;;;;;;4883516;28;87092;-83
2020/12/17 12:01:41;;;;;;;14.70;9.55;;;15.00;57.70;;;;;;4894400;28;86392;-83
2020/12/17 12:04:07;;;;;;;11.05;8.70;;;14.60;57.70;;;;;;4907657;28;86846;-82
2020/12/17 12:06:33;;;;;;;12.85;8.98;;;14.50;58.90;;;;;;4912382;28;86847;-82
2020/12/17 12:08:59;;;;;;;11.07;9.32;;;14.40;58.10;;;;;;4904798;28;87925;-83
2020/12/17 12:11:25;;;;;;;11.77;9.10;;;14.00;59.40;;;;;;4909765;28;86950;-83
2020/12/17 12:13:52;;;;;;;14.23;9.75;;;13.70;61.30;;;;;;4899889;28;87725;-83
2020/12/17 12:16:18;;;;;;;16.17;10.65;;;13.40;63.60;;;;;;4911500;28;87431;-83
2020/12/17 12:18:44;;;;;;;16.05;10.85;;;13.00;64.60;;;;;;4902788;28;86906;-84
2020/12/17 12:21:12;;;;;;;16.83;11.15;;;12.30;67.10;;;;;;4911055;28;86959;-83
2020/12/17 12:23:40;;;;;;;16.95;11.18;;;12.30;67.80;;;;;;4905938;28;87316;-83
2020/12/17 12:26:06;;;;;;;18.27;11.75;;;12.10;68.80;;;;;;4908627;28;87654;-83
2020/12/17 12:28:32;;;;;;;17.30;12.60;;;11.60;70.40;;;;;;4910496;28;86668;-82
2020/12/17 12:30:57;;;;;;;23.58;14.25;;;11.30;71.50;;;;;;4910866;28;87115;-79
2020/12/17 12:33:23;;;;;;;22.90;14.38;;;11.00;72.40;;;;;;4900925;28;87788;-81
2020/12/17 12:35:49;;;;;;;24.80;15.18;;;10.80;73.60;;;;;;4910010;28;88387;-81
2020/12/17 12:38:14;;;;;;;26.23;15.52;;;10.40;75.50;;;;;;4910764;28;86774;-80
2020/12/17 12:40:40;;;;;;;21.75;12.00;;;10.20;76.40;;;;;;4917284;28;86806;-81
2020/12/17 12:43:06;;;;;;;18.52;12.27;;;10.00;76.90;;;;;;4908633;28;87920;-83
2020/12/17 12:45:32;;;;;;;21.38;12.85;;;9.90;77.80;;;;;;4910873;28;87031;-83
2020/12/17 12:47:58;;;;;;;19.00;12.95;;;9.70;79.00;;;;;;4907149;28;87106;-81
2020/12/17 12:50:23;;;;;;;23.83;14.35;;;9.60;79.50;;;;;;4916248;28;86369;-82
2020/12/17 12:52:49;;;;;;;23.60;15.18;;;9.50;80.40;;;;;;4913924;28;86631;-83
2020/12/17 12:55:15;;;;;;;31.80;16.75;;;9.30;81.40;;;;;;4918789;28;86923;-83
2020/12/17 12:57:40;;;;;;;31.27;16.75;;;9.20;82.80;;;;;;4906035;28;88097;-81
2020/12/17 13:00:06;;;;;;;29.95;16.73;;;9.00;83.10;;;;;;4905097;28;86800;-82
2020/12/17 13:02:32;;;;;;;28.20;15.65;;;8.90;83.80;;;;;;4898477;28;87184;-82
2020/12/17 13:04:57;;;;;;;28.45;16.30;;;8.80;84.50;;;;;;4907541;28;86961;-81
2020/12/17 13:07:23;;;;;;;32.85;16.80;;;8.70;84.80;;;;;;4912162;28;86942;-82
2020/12/17 13:09:49;;;;;;;30.98;16.20;;;8.60;86.40;;;;;;4911500;28;87060;-82
2020/12/17 13:12:14;;;;;;;30.95;15.68;;;8.50;88.00;;;;;;4907210;28;86839;-81
2020/12/17 13:14:40;;;;;;;33.80;16.70;;;8.30;90.40;;;;;;4924020;28;86721;-82
2020/12/17 13:17:07;;;;;;;35.28;18.67;;;8.00;92.30;;;;;;4916812;28;87010;-81
2020/12/17 13:19:33;;;;;;;34.47;17.40;;;7.90;93.30;;;;;;4908757;28;86733;-81
2020/12/17 13:21:58;;;;;;;34.00;17.05;;;7.90;93.60;;;;;;4909971;28;88602;-81
2020/12/17 13:24:24;;;;;;;30.15;16.27;;;8.00;93.60;;;;;;4906498;28;87144;-82
2020/12/17 13:26:50;;;;;;;34.03;18.67;;;8.00;94.70;;;;;;4901633;28;87050;-80
2020/12/17 13:29:15;;;;;;;35.72;17.23;;;7.60;96.40;;;;;;4916927;28;86968;-82
2020/12/17 13:31:41;;;;;;;33.92;18.08;;;7.60;96.70;;;;;;4906365;28;87659;-82
2020/12/17 13:34:07;;;;;;;30.35;17.30;;;7.80;97.10;;;;;;4917347;28;86951;-82
2020/12/17 13:36:32;;;;;;;34.53;18.10;;;7.80;96.90;;;;;;4910335;28;86823;-82
2020/12/17 13:38:58;;;;;;;33.10;17.00;;;7.80;97.00;;;;;;4910163;28;86158;-81
2020/12/17 13:41:24;;;;;;;33.15;16.77;;;7.90;96.60;;;;;;4905165;28;87028;-80
2020/12/17 13:43:50;;;;;;;29.83;16.40;;;8.00;96.40;;;;;;4915291;28;87486;-82
2020/12/17 13:46:19;;;;;;;31.55;16.58;;;8.10;96.30;;;;;;4908296;28;87771;-82
2020/12/17 13:48:45;;;;;;;30.38;15.57;;;8.00;96.40;;;;;;4910867;28;86730;-83
2020/12/17 13:51:19;;;;;;;31.30;15.65;;;8.10;96.40;;;;;;4910406;28;87757;-81
2020/12/17 13:53:46;;;;;;;30.77;15.45;;;8.20;96.60;;;;;;4911175;28;86548;-84
2020/12/17 13:56:12;;;;;;;32.03;16.98;;;8.20;96.30;;;;;;4910880;28;86567;-82
2020/12/17 13:58:37;;;;;;;29.50;15.82;;;8.30;96.00;;;;;;4910596;28;87007;-82
2020/12/17 14:01:03;;;;;;;35.75;16.52;;;8.30;95.60;;;;;;4910903;28;87032;-82
2020/12/17 14:03:29;;;;;;;33.72;16.48;;;8.30;95.80;;;;;;4909192;28;86511;-80
2020/12/17 14:05:54;;;;;;;30.83;16.10;;;8.30;95.70;;;;;;4907569;28;86761;-82
2020/12/17 14:08:20;;;;;;;26.38;13.48;;;8.30;95.60;;;;;;4911142;28;86750;-81
2020/12/17 14:10:46;;;;;;;26.23;14.35;;;8.30;95.60;;;;;;4910052;28;88256;-82
2020/12/17 14:13:11;;;;;;;27.40;15.25;;;8.20;95.80;;;;;;4910733;28;88096;-81
2020/12/17 14:15:37;;;;;;;27.63;14.68;;;8.20;96.00;;;;;;4911342;28;86831;-83
2020/12/17 14:18:03;;;;;;;25.35;13.65;;;8.10;96.70;;;;;;4910823;28;86713;-82
2020/12/17 14:20:28;;;;;;;28.48;15.68;;;8.10;97.40;;;;;;4909672;28;87436;-82
2020/12/17 14:22:54;;;;;;;32.03;15.98;;;8.00;97.80;;;;;;4910757;28;87375;-82
2020/12/17 14:25:20;;;;;;;34.17;15.98;;;8.00;98.10;;;;;;4910828;28;86847;-82
2020/12/17 14:27:45;;;;;;;31.00;15.32;;;7.90;98.50;;;;;;4911146;28;86094;-82
2020/12/17 14:30:12;;;;;;;29.50;15.35;;;7.90;98.40;;;;;;4910670;28;86968;-82
2020/12/17 14:32:38;;;;;;;34.58;17.20;;;7.90;98.10;;;;;;4892928;28;87026;-81
2020/12/17 14:35:05;;;;;;;34.83;17.00;;;8.00;98.30;;;;;;4910060;28;87882;-82
2020/12/17 14:37:32;;;;;;;32.22;16.55;;;7.90;98.60;;;;;;4910566;28;86988;-82
2020/12/17 14:39:58;;;;;;;29.90;16.08;;;7.90;98.60;;;;;;4909465;28;86857;-81
2020/12/17 14:42:23;;;;;;;30.48;16.00;;;7.90;98.80;;;;;;4910140;28;87061;-82
2020/12/17 14:44:49;;;;;;;30.15;15.45;;;7.80;99.10;;;;;;4910313;28;87447;-82
2020/12/17 14:47:15;;;;;;;27.83;14.38;;;7.80;99.30;;;;;;4909481;28;87032;-81
2020/12/17 14:49:40;;;;;;;29.45;15.68;;;7.80;99.90;;;;;;4909768;28;87939;-82
2020/12/17 14:52:06;;;;;;;27.05;15.82;;;7.80;99.90;;;;;;4910284;28;86362;-82
2020/12/17 14:54:32;;;;;;;28.77;15.63;;;7.70;99.90;;;;;;4910147;28;86954;-82
2020/12/17 14:56:58;;;;;;;23.75;13.45;;;7.70;99.90;;;;;;4910295;28;86946;-82
2020/12/17 14:59:23;;;;;;;24.30;14.00;;;7.60;99.90;;;;;;4910168;28;88473;-80
2020/12/17 15:01:56;;;;;;;23.75;14.55;;;7.50;99.90;;;;;;4910229;28;87922;-82
2020/12/17 15:04:22;;;;;;;23.73;13.55;;;7.50;99.90;;;;;;4909609;28;86918;-82
2020/12/17 15:06:48;;;;;;;20.90;12.20;;;7.50;99.90;;;;;;4909522;28;86993;-80
2020/12/17 15:09:15;;;;;;;20.42;12.98;;;7.50;99.90;;;;;;4909906;28;88365;-81
2020/12/17 15:11:41;;;;;;;23.55;12.60;;;7.40;99.90;;;;;;4915236;28;87058;-81
2020/12/17 15:14:10;;;;;;;23.85;14.57;;;7.40;99.90;;;;;;4918650;28;86101;-81
2020/12/17 15:16:36;;;;;;;25.15;13.25;;;7.30;99.90;;;;;;4913428;28;86366;-79
2020/12/17 15:19:03;;;;;;;23.27;13.27;;;7.30;99.90;;;;;;4917648;28;86511;-79
2020/12/17 15:21:29;;;;;;;19.33;12.50;;;7.20;99.90;;;;;;4913888;28;86988;-81
2020/12/17 15:23:55;;;;;;;25.23;12.95;;;7.10;99.90;;;;;;4908814;28;88002;-82
2020/12/17 15:26:21;;;;;;;20.23;13.05;;;7.00;99.90;;;;;;4907842;28;86814;-81
2020/12/17 15:28:48;;;;;;;23.08;13.25;;;6.90;99.90;;;;;;4908160;28;87091;-82
2020/12/17 15:31:14;;;;;;;20.90;12.00;;;6.80;99.90;;;;;;4908389;28;87013;-81
2020/12/17 15:33:40;;;;;;;23.92;14.30;;;6.70;99.90;;;;;;4909060;28;86966;-81
2020/12/17 15:36:06;;;;;;;22.10;12.88;;;6.50;99.90;;;;;;4909373;28;86983;-81
2020/12/17 15:38:33;;;;;;;23.05;13.73;;;6.40;99.90;;;;;;4909343;28;87067;-80
2020/12/17 15:40:58;;;;;;;24.05;13.27;;;6.40;99.90;;;;;;4908472;28;87042;-82
2020/12/17 15:43:24;;;;;;;21.20;12.15;;;6.40;99.90;;;;;;4911623;28;87234;-81
2020/12/17 15:45:51;;;;;;;23.58;12.90;;;6.40;99.90;;;;;;4911021;28;86977;-81
2020/12/17 15:48:17;;;;;;;22.40;13.23;;;6.40;99.90;;;;;;4891913;28;88099;-79
2020/12/17 15:50:42;;;;;;;20.80;11.70;;;6.30;99.90;;;;;;4888741;28;88451;-81
2020/12/17 15:53:08;;;;;;;23.42;12.90;;;6.40;99.90;;;;;;4887753;28;86628;-81
2020/12/17 15:55:34;;;;;;;23.92;12.40;;;6.40;99.90;;;;;;4902225;28;86935;-81
2020/12/17 15:58:00;;;;;;;22.23;13.48;;;6.40;99.90;;;;;;4890148;28;87345;-80
2020/12/17 16:00:25;;;;;;;23.42;13.68;;;6.40;99.90;;;;;;4893918;28;87165;-81
2020/12/17 16:02:51;;;;;;;25.90;14.20;;;6.40;99.90;;;;;;4901757;28;86948;-81
2020/12/17 16:05:17;;;;;;;28.75;15.43;;;6.40;99.90;;;;;;4906274;28;86151;-80
2020/12/17 16:07:42;;;;;;;33.83;17.38;;;6.50;99.90;;;;;;4902809;28;87683;-81
2020/12/17 16:10:08;;;;;;;27.08;15.05;;;6.60;99.90;;;;;;4887827;28;86960;-81
2020/12/17 16:12:34;;;;;;;29.05;15.35;;;6.50;99.90;;;;;;4895024;28;87556;-82
2020/12/17 16:15:06;;;;;;;32.20;16.33;;;6.40;99.90;;;;;;4896320;28;87123;-82
2020/12/17 16:17:32;;;;;;;35.70;18.60;;;6.40;99.90;;;;;;4898105;28;86910;-81
2020/12/17 16:20:01;;;;;;;39.22;19.98;;;6.40;99.90;;;;;;4894608;28;86962;-81
2020/12/17 16:22:33;;;;;;;29.17;16.75;;;6.40;99.90;;;;;;4908804;28;86766;-82
2020/12/17 16:24:58;;;;;;;29.23;17.60;;;6.20;99.90;;;;;;4904965;28;86984;-82
2020/12/17 16:27:24;;;;;;;30.35;18.55;;;6.20;99.90;;;;;;4908901;28;86796;-80